createdAt,value
2022-10-05T00:00:51.045Z,8.50
2022-10-05T00:03:37.322Z,8.50
2022-10-05T00:06:05.607Z,8.50
2022-10-05T00:08:36.564Z,8.50
2022-10-05T00:11:07.644Z,8.60
2022-10-05T00:13:35.737Z,8.60
2022-10-05T00:16:11.555Z,8.60
2022-10-05T00:18:40.036Z,8.70
2022-10-05T00:21:27.061Z,8.60
2022-10-05T00:23:57.670Z,8.70
2022-10-05T00:26:27.629Z,8.70
2022-10-05T00:28:55.386Z,8.70
2022-10-05T00:31:32.228Z,8.70
2022-10-05T00:33:59.555Z,8.70
2022-10-05T00:36:27.406Z,8.80
2022-10-05T00:38:55.213Z,8.80
2022-10-05T00:41:50.137Z,8.80
2022-10-05T00:44:32.442Z,8.80
2022-10-05T00:47:24.710Z,8.90
2022-10-05T00:50:07.103Z,8.90
2022-10-05T00:53:01.825Z,8.90
2022-10-05T00:55:38.095Z,9.00
2022-10-05T00:58:11.514Z,8.90
2022-10-05T01:01:01.403Z,9.00
2022-10-05T01:04:07.329Z,9.00
2022-10-05T01:06:56.214Z,9.00
2022-10-05T01:09:33.426Z,9.00
2022-10-05T01:12:07.639Z,9.00
2022-10-05T01:14:53.506Z,9.00
2022-10-05T01:17:41.929Z,9.00
2022-10-05T01:20:27.639Z,9.10
2022-10-05T01:23:13.372Z,9.00
2022-10-05T01:25:49.475Z,9.00
2022-10-05T01:28:22.733Z,9.10
2022-10-05T01:30:57.800Z,9.00
2022-10-05T01:33:46.444Z,9.10
2022-10-05T01:36:34.755Z,9.10
2022-10-05T01:39:03.857Z,9.10
2022-10-05T01:41:55.772Z,9.10
2022-10-05T01:44:44.603Z,9.10
2022-10-05T01:47:21.943Z,9.10
2022-10-05T01:50:34.759Z,9.10
2022-10-05T01:53:15.665Z,9.10
2022-10-05T01:56:01.213Z,9.10
2022-10-05T01:58:55.682Z,9.10
2022-10-05T02:01:49.868Z,9.10
2022-10-05T02:04:59.825Z,9.10
2022-10-05T02:07:18.281Z,9.10
2022-10-05T02:10:00.831Z,9.00
2022-10-05T02:12:34.972Z,9.00
2022-10-05T02:15:24.291Z,9.00
2022-10-05T02:17:59.409Z,9.00
2022-10-05T02:20:32.062Z,9.00
2022-10-05T02:23:10.485Z,9.00
2022-10-05T02:25:40.710Z,9.00
2022-10-05T02:28:12.744Z,9.00
2022-10-05T02:30:51.704Z,9.00
2022-10-05T02:33:38.888Z,9.00
2022-10-05T02:36:27.519Z,9.10
2022-10-05T02:39:13.179Z,9.10
2022-10-05T02:41:43.175Z,9.10
2022-10-05T02:44:33.877Z,9.10
2022-10-05T02:47:06.665Z,9.20
2022-10-05T02:49:46.470Z,9.10
2022-10-05T02:52:35.977Z,9.10
2022-10-05T02:56:02.658Z,9.20
2022-10-05T02:58:59.476Z,9.10
2022-10-05T03:01:38.873Z,9.10
2022-10-05T03:04:09.268Z,9.10
2022-10-05T03:07:07.128Z,9.10
2022-10-05T03:09:48.190Z,9.10
2022-10-05T03:12:29.514Z,9.10
2022-10-05T03:15:23.919Z,9.10
2022-10-05T03:18:19.690Z,9.10
2022-10-05T03:20:55.058Z,9.20
2022-10-05T03:24:10.271Z,9.10
2022-10-05T03:26:47.214Z,9.10
2022-10-05T03:29:58.630Z,9.10
2022-10-05T03:32:44.766Z,9.10
2022-10-05T03:35:34.750Z,9.20
2022-10-05T03:38:24.390Z,9.20
2022-10-05T03:41:08.691Z,9.20
2022-10-05T03:43:54.284Z,9.20
2022-10-05T03:46:43.086Z,9.20
2022-10-05T03:49:15.960Z,9.30
2022-10-05T03:51:51.441Z,9.20
2022-10-05T03:54:32.786Z,9.20
2022-10-05T03:57:25.967Z,9.30
2022-10-05T04:00:01.727Z,9.30
2022-10-05T04:02:41.451Z,9.30
2022-10-05T04:05:18.256Z,9.30
2022-10-05T04:07:52.112Z,9.30
2022-10-05T04:10:27.487Z,9.30
2022-10-05T04:13:03.001Z,9.30
2022-10-05T04:15:37.922Z,9.30
2022-10-05T04:18:11.552Z,9.30
2022-10-05T04:20:44.443Z,9.30
2022-10-05T04:23:40.442Z,9.30
2022-10-05T04:26:28.847Z,9.40
2022-10-05T04:29:11.927Z,9.30
2022-10-05T04:32:01.938Z,9.40
2022-10-05T04:34:53.865Z,9.30
2022-10-05T04:37:28.746Z,9.30
2022-10-05T04:40:17.712Z,9.30
2022-10-05T04:42:54.914Z,9.30
2022-10-05T04:45:40.923Z,9.30
2022-10-05T04:48:27.393Z,9.30
2022-10-05T04:51:16.091Z,9.30
2022-10-05T04:53:53.675Z,9.30
2022-10-05T04:56:36.399Z,9.30
2022-10-05T04:59:12.608Z,9.30
2022-10-05T05:01:52.073Z,9.30
2022-10-05T05:04:40.576Z,9.30
2022-10-05T05:07:38.421Z,9.30
2022-10-05T05:10:08.549Z,9.30
2022-10-05T05:12:51.042Z,9.30
2022-10-05T05:15:21.198Z,9.30
2022-10-05T05:18:13.526Z,9.30
2022-10-05T05:21:02.263Z,9.30
2022-10-05T05:23:54.561Z,9.40
2022-10-05T05:27:04.223Z,9.30
2022-10-05T05:29:58.344Z,9.40
2022-10-05T05:32:43.174Z,9.40
2022-10-05T05:35:25.517Z,9.40
2022-10-05T05:38:02.792Z,9.40
2022-10-05T05:40:39.515Z,9.50
2022-10-05T05:43:38.389Z,9.50
2022-10-05T05:46:30.132Z,9.50
2022-10-05T05:49:30.053Z,9.60
2022-10-05T05:52:05.427Z,9.60
2022-10-05T05:54:40.987Z,9.60
2022-10-05T05:57:21.654Z,9.60
2022-10-05T05:59:54.846Z,9.60
2022-10-05T06:02:29.132Z,9.60
2022-10-05T06:05:02.799Z,9.70
2022-10-05T06:07:31.944Z,9.70
2022-10-05T06:10:33.946Z,9.70
2022-10-05T06:13:15.343Z,9.70
2022-10-05T06:15:56.033Z,9.70
2022-10-05T06:18:24.826Z,9.70
2022-10-05T06:21:00.876Z,9.80
2022-10-05T06:23:39.107Z,9.80
2022-10-05T06:26:30.073Z,9.90
2022-10-05T06:29:04.032Z,9.90
2022-10-05T06:31:37.004Z,9.90
2022-10-05T06:34:18.853Z,9.90
2022-10-05T06:36:55.678Z,9.90
2022-10-05T06:39:44.224Z,9.90
2022-10-05T06:42:23.154Z,10.00
2022-10-05T06:45:10.016Z,10.10
2022-10-05T06:48:05.854Z,10.10
2022-10-05T06:51:09.976Z,10.10
2022-10-05T06:54:21.496Z,10.10
2022-10-05T06:57:38.051Z,10.20
2022-10-05T07:00:26.347Z,10.20
2022-10-05T07:03:08.597Z,10.30
2022-10-05T07:05:35.868Z,10.30
2022-10-05T07:08:16.140Z,10.40
2022-10-05T07:10:46.617Z,10.40
2022-10-05T07:13:23.540Z,10.50
2022-10-05T07:15:53.987Z,10.60
2022-10-05T07:18:47.860Z,10.70
2022-10-05T07:21:27.760Z,10.80
2022-10-05T07:24:06.182Z,10.90
2022-10-05T07:27:00.905Z,11.00
2022-10-05T07:29:39.642Z,11.20
2022-10-05T07:32:34.835Z,11.30
2022-10-05T07:36:19.025Z,11.40
2022-10-05T07:38:58.700Z,11.60
2022-10-05T07:41:40.353Z,11.70
2022-10-05T07:44:33.386Z,11.70
2022-10-05T07:47:05.305Z,11.80
2022-10-05T07:49:43.310Z,11.90
2022-10-05T07:52:23.708Z,11.90
2022-10-05T07:55:13.031Z,12.00
2022-10-05T07:57:46.530Z,12.10
2022-10-05T08:00:18.828Z,12.20
2022-10-05T08:03:11.540Z,12.30
2022-10-05T08:05:42.441Z,12.40
2022-10-05T08:08:14.432Z,12.50
2022-10-05T08:11:07.355Z,12.60
2022-10-05T08:13:56.089Z,12.60
2022-10-05T08:16:28.398Z,12.70
2022-10-05T08:19:04.159Z,12.80
2022-10-05T08:21:45.425Z,12.80
2022-10-05T08:24:38.991Z,12.90
2022-10-05T08:27:15.128Z,13.00
2022-10-05T08:30:05.456Z,13.10
2022-10-05T08:32:46.693Z,13.20
2022-10-05T08:35:17.880Z,13.20
2022-10-05T08:37:46.267Z,13.30
2022-10-05T08:40:22.545Z,13.40
2022-10-05T08:43:08.710Z,13.60
2022-10-05T08:45:51.455Z,13.70
2022-10-05T08:48:57.213Z,13.90
2022-10-05T08:51:42.906Z,13.90
2022-10-05T08:54:25.431Z,13.90
2022-10-05T08:57:11.286Z,14.00
2022-10-05T08:59:47.547Z,14.10
2022-10-05T09:02:47.347Z,14.20
2022-10-05T09:05:44.874Z,14.40
2022-10-05T09:08:33.377Z,14.40
2022-10-05T09:11:46.210Z,14.50
2022-10-05T09:14:31.318Z,14.60
2022-10-05T09:17:01.445Z,14.70
2022-10-05T09:20:15.170Z,14.70
2022-10-05T09:22:51.406Z,14.80
2022-10-05T09:25:55.660Z,14.90
2022-10-05T09:28:34.544Z,15.00
2022-10-05T09:31:16.262Z,15.00
2022-10-05T09:34:26.029Z,15.10
2022-10-05T09:37:23.418Z,15.20
2022-10-05T09:40:35.869Z,15.40
2022-10-05T09:43:41.545Z,15.50
2022-10-05T09:46:27.888Z,15.60
2022-10-05T09:49:18.043Z,15.70
2022-10-05T09:52:09.106Z,15.80
2022-10-05T09:55:02.980Z,15.90
2022-10-05T09:57:33.236Z,16.00
2022-10-05T10:00:34.445Z,16.10
2022-10-05T10:03:39.320Z,16.10
2022-10-05T10:06:30.890Z,16.10
2022-10-05T10:09:46.592Z,16.20
2022-10-05T10:12:25.449Z,16.30
2022-10-05T10:15:11.755Z,16.40
2022-10-05T10:17:53.759Z,16.60
2022-10-05T10:20:39.885Z,16.60
2022-10-05T10:23:22.071Z,16.70
2022-10-05T10:26:39.982Z,16.70
2022-10-05T10:29:31.553Z,16.70
2022-10-05T10:32:32.900Z,16.70
2022-10-05T10:35:31.285Z,16.70
2022-10-05T10:38:17.551Z,16.70
2022-10-05T10:40:59.660Z,16.70
2022-10-05T10:43:45.866Z,16.70
2022-10-05T10:46:18.698Z,16.70
2022-10-05T10:49:03.176Z,16.70
2022-10-05T10:51:57.706Z,16.80
2022-10-05T10:54:37.318Z,16.80
2022-10-05T10:57:15.196Z,16.80
2022-10-05T10:59:54.244Z,16.70
2022-10-05T11:02:45.376Z,16.70
2022-10-05T11:05:24.896Z,16.80
2022-10-05T11:08:03.178Z,16.90
2022-10-05T11:10:43.122Z,16.90
2022-10-05T11:13:36.313Z,17.00
2022-10-05T11:16:15.844Z,16.90
2022-10-05T11:19:07.125Z,16.90
2022-10-05T11:21:46.212Z,17.00
2022-10-05T11:25:07.660Z,17.00
2022-10-05T11:27:46.849Z,17.00
2022-10-05T11:30:23.125Z,17.00
2022-10-05T11:32:56.831Z,17.10
2022-10-05T11:36:19.558Z,17.10
2022-10-05T11:39:08.008Z,17.30
2022-10-05T11:41:53.941Z,17.40
2022-10-05T11:44:52.289Z,17.40
2022-10-05T11:47:27.998Z,17.40
2022-10-05T11:50:16.332Z,17.40
2022-10-05T11:52:52.294Z,17.50
2022-10-05T11:55:37.517Z,17.50
2022-10-05T11:58:17.231Z,17.50
2022-10-05T12:00:50.281Z,17.50
2022-10-05T12:03:36.626Z,17.60
2022-10-05T12:06:29.440Z,17.70
2022-10-05T12:09:15.195Z,17.70
2022-10-05T12:12:03.701Z,17.70
2022-10-05T12:15:03.129Z,17.80
2022-10-05T12:17:41.530Z,17.80
2022-10-05T12:20:20.901Z,17.80
2022-10-05T12:23:14.380Z,17.70
2022-10-05T12:26:04.233Z,17.70
2022-10-05T12:28:45.957Z,17.70
2022-10-05T12:31:37.968Z,17.60
2022-10-05T12:34:17.824Z,17.70
2022-10-05T12:37:04.177Z,17.70
2022-10-05T12:40:11.513Z,17.80
2022-10-05T12:43:04.940Z,18.00
2022-10-05T12:45:46.136Z,18.10
2022-10-05T12:48:44.540Z,18.10
2022-10-05T12:51:42.683Z,18.10
2022-10-05T12:54:34.227Z,18.00
2022-10-05T12:57:09.346Z,18.00
2022-10-05T12:59:47.010Z,17.90
2022-10-05T13:02:30.183Z,17.90
2022-10-05T13:05:09.815Z,17.80
2022-10-05T13:08:17.985Z,17.80
2022-10-05T13:11:02.088Z,17.70
2022-10-05T13:13:49.635Z,17.70
2022-10-05T13:16:22.867Z,17.60
2022-10-05T13:18:56.725Z,17.60
2022-10-05T13:21:32.136Z,17.60
2022-10-05T13:24:29.884Z,17.60
2022-10-05T13:27:08.587Z,17.60
2022-10-05T13:29:42.368Z,17.60
2022-10-05T13:32:39.748Z,17.50
2022-10-05T13:35:28.431Z,17.50
2022-10-05T13:38:20.796Z,17.50
2022-10-05T13:41:14.715Z,17.50
2022-10-05T13:43:45.074Z,17.50
2022-10-05T13:46:37.061Z,17.40
2022-10-05T13:49:29.605Z,17.50
2022-10-05T13:52:08.937Z,17.50
2022-10-05T13:55:06.670Z,17.50
2022-10-05T13:58:05.851Z,17.50
2022-10-05T14:00:54.472Z,17.70
2022-10-05T14:04:10.040Z,17.80
2022-10-05T14:06:38.919Z,18.00
2022-10-05T14:09:31.013Z,18.20
2022-10-05T14:12:04.197Z,18.10
2022-10-05T14:14:41.323Z,18.10
2022-10-05T14:17:32.116Z,18.10
2022-10-05T14:20:15.911Z,17.90
2022-10-05T14:22:45.663Z,17.80
2022-10-05T14:25:18.119Z,17.70
2022-10-05T14:27:49.959Z,17.70
2022-10-05T14:30:24.377Z,17.60
2022-10-05T14:32:56.575Z,17.50
2022-10-05T14:35:28.753Z,17.40
2022-10-05T14:38:02.483Z,17.30
2022-10-05T14:40:35.487Z,17.20
2022-10-05T14:43:14.852Z,17.20
2022-10-05T14:45:58.112Z,17.10
2022-10-05T14:48:28.110Z,17.10
2022-10-05T14:51:03.324Z,17.00
2022-10-05T14:54:00.578Z,17.00
2022-10-05T14:56:49.750Z,17.00
2022-10-05T14:59:29.170Z,16.90
2022-10-05T15:02:26.909Z,16.90
2022-10-05T15:04:59.814Z,16.80
2022-10-05T15:07:49.364Z,16.80
2022-10-05T15:10:35.265Z,16.70
2022-10-05T15:13:15.166Z,16.60
2022-10-05T15:15:44.965Z,16.50
2022-10-05T15:18:42.122Z,16.50
2022-10-05T15:21:34.379Z,16.40
2022-10-05T15:24:15.977Z,16.40
2022-10-05T15:26:55.541Z,16.30
2022-10-05T15:29:55.656Z,16.30
2022-10-05T15:32:43.397Z,16.20
2022-10-05T15:35:43.200Z,16.20
2022-10-05T15:38:29.223Z,16.10
2022-10-05T15:41:08.225Z,16.10
2022-10-05T15:43:55.264Z,16.00
2022-10-05T15:46:44.202Z,16.00
2022-10-05T15:49:29.407Z,15.90
2022-10-05T15:52:24.330Z,15.90
2022-10-05T15:55:14.707Z,15.80
2022-10-05T15:57:42.091Z,15.70
2022-10-05T16:00:17.298Z,15.70
2022-10-05T16:02:56.914Z,15.60
2022-10-05T16:05:57.723Z,15.50
2022-10-05T16:08:54.075Z,15.50
2022-10-05T16:11:36.729Z,15.50
2022-10-05T16:14:34.628Z,15.40
2022-10-05T16:17:26.669Z,15.40
2022-10-05T16:20:03.221Z,15.30
2022-10-05T16:22:49.177Z,15.20
2022-10-05T16:25:45.507Z,15.20
2022-10-05T16:28:29.288Z,15.20
2022-10-05T16:31:08.670Z,15.20
2022-10-05T16:33:46.636Z,15.20
2022-10-05T16:36:31.873Z,15.20
2022-10-05T16:39:11.785Z,15.10
2022-10-05T16:41:48.733Z,15.10
2022-10-05T16:44:27.849Z,15.00
2022-10-05T16:47:03.658Z,15.00
2022-10-05T16:49:55.043Z,15.00
2022-10-05T16:52:24.026Z,15.00
2022-10-05T16:55:02.979Z,14.90
2022-10-05T16:57:45.120Z,14.90
2022-10-05T17:01:11.491Z,14.90
2022-10-05T17:03:58.141Z,14.80
2022-10-05T17:06:37.312Z,14.80
2022-10-05T17:09:19.461Z,14.70
2022-10-05T17:11:57.241Z,14.70
2022-10-05T17:14:39.070Z,14.70
2022-10-05T17:17:27.841Z,14.60
2022-10-05T17:20:19.586Z,14.60
2022-10-05T17:22:55.086Z,14.60
2022-10-05T17:25:47.350Z,14.60
2022-10-05T17:28:48.411Z,14.60
2022-10-05T17:31:17.406Z,14.50
2022-10-05T17:34:10.553Z,14.50
2022-10-05T17:36:42.960Z,14.40
2022-10-05T17:39:20.433Z,14.40
2022-10-05T17:41:48.709Z,14.40
2022-10-05T17:44:34.165Z,14.40
2022-10-05T17:47:04.510Z,14.30
2022-10-05T17:50:13.317Z,14.30
2022-10-05T17:53:02.240Z,14.30
2022-10-05T17:55:45.880Z,14.30
2022-10-05T17:58:29.022Z,14.30
2022-10-05T18:01:00.756Z,14.20
2022-10-05T18:03:50.593Z,14.20
2022-10-05T18:06:31.343Z,14.20
2022-10-05T18:09:21.068Z,14.20
2022-10-05T18:12:32.574Z,14.10
2022-10-05T18:15:08.699Z,14.10
2022-10-05T18:17:45.365Z,14.10
2022-10-05T18:20:27.022Z,14.10
2022-10-05T18:23:25.568Z,14.10
2022-10-05T18:25:57.971Z,14.00
2022-10-05T18:28:28.537Z,14.00
2022-10-05T18:31:04.378Z,14.00
2022-10-05T18:33:41.256Z,14.00
2022-10-05T18:36:33.052Z,14.00
2022-10-05T18:39:47.031Z,13.90
2022-10-05T18:42:29.619Z,13.90
2022-10-05T18:45:15.571Z,13.90
2022-10-05T18:48:05.038Z,13.80
2022-10-05T18:50:52.676Z,13.80
2022-10-05T18:53:37.040Z,13.80
2022-10-05T18:56:19.263Z,13.80
2022-10-05T18:58:56.589Z,13.80
2022-10-05T19:01:56.721Z,13.70
2022-10-05T19:04:42.662Z,13.70
2022-10-05T19:07:50.937Z,13.60
2022-10-05T19:10:33.558Z,13.60
2022-10-05T19:13:37.723Z,13.60
2022-10-05T19:19:47.307Z,13.50
2022-10-05T19:22:19.959Z,13.50
2022-10-05T19:25:09.831Z,13.50
2022-10-05T19:27:58.840Z,13.50
2022-10-05T19:30:44.411Z,13.40
2022-10-05T19:33:33.607Z,13.40
2022-10-05T19:36:25.525Z,13.40
2022-10-05T19:39:03.572Z,13.30
2022-10-05T19:41:40.854Z,13.30
2022-10-05T19:44:28.522Z,13.20
2022-10-05T19:47:04.367Z,13.20
2022-10-05T19:49:59.139Z,13.20
2022-10-05T19:52:36.532Z,13.10
2022-10-05T19:55:26.443Z,13.10
2022-10-05T19:58:01.339Z,13.10
2022-10-05T20:00:35.353Z,13.00
2022-10-05T20:03:12.112Z,13.00
2022-10-05T20:05:40.430Z,13.00
2022-10-05T20:08:08.259Z,12.90
2022-10-05T20:10:35.784Z,12.90
2022-10-05T20:13:04.910Z,12.90
2022-10-05T20:15:53.727Z,12.90
2022-10-05T20:19:05.836Z,12.90
2022-10-05T20:21:51.594Z,12.90
2022-10-05T20:24:27.249Z,12.80
2022-10-05T20:27:05.797Z,12.80
2022-10-05T20:29:39.047Z,12.80
2022-10-05T20:32:12.202Z,12.80
2022-10-05T20:34:44.776Z,12.80
2022-10-05T20:37:16.954Z,12.80
2022-10-05T20:39:44.638Z,12.80
2022-10-05T20:42:11.881Z,12.80
2022-10-05T20:44:39.279Z,12.80
2022-10-05T20:47:09.617Z,12.80
2022-10-05T20:49:38.599Z,12.70
2022-10-05T20:52:06.984Z,12.70
2022-10-05T20:54:34.366Z,12.70
2022-10-05T20:57:02.441Z,12.70
2022-10-05T20:59:29.567Z,12.70
2022-10-05T21:01:58.215Z,12.60
2022-10-05T21:04:40.364Z,12.60
2022-10-05T21:07:08.276Z,12.60
2022-10-05T21:09:38.453Z,12.60
2022-10-05T21:12:05.909Z,12.50
2022-10-05T21:14:34.567Z,12.60
2022-10-05T21:17:02.288Z,12.50
2022-10-05T21:19:29.817Z,12.50
2022-10-05T21:22:02.491Z,12.50
2022-10-05T21:24:29.764Z,12.50
2022-10-05T21:26:57.725Z,12.50
2022-10-05T21:29:25.160Z,12.50
2022-10-05T21:31:52.558Z,12.50
2022-10-05T21:34:19.689Z,12.40
2022-10-05T21:36:47.040Z,12.40
2022-10-05T21:39:14.194Z,12.40
2022-10-05T21:41:41.358Z,12.50
2022-10-05T21:44:08.679Z,12.50
2022-10-05T21:46:37.084Z,12.40
2022-10-05T21:49:07.007Z,12.40
2022-10-05T21:51:35.612Z,12.40
2022-10-05T21:54:11.355Z,12.40
2022-10-05T21:56:43.255Z,12.40
2022-10-05T21:59:13.257Z,12.40
2022-10-05T22:01:40.715Z,12.40
2022-10-05T22:04:08.208Z,12.40
2022-10-05T22:06:36.342Z,12.40
2022-10-05T22:09:04.880Z,12.40
2022-10-05T22:11:33.041Z,12.40
2022-10-05T22:14:03.262Z,12.40
2022-10-05T22:16:34.993Z,12.40
2022-10-05T22:19:07.368Z,12.40
2022-10-05T22:21:41.646Z,12.40
2022-10-05T22:24:11.537Z,12.30
2022-10-05T22:26:41.479Z,12.30
2022-10-05T22:29:09.695Z,12.30
2022-10-05T22:31:37.740Z,12.30
2022-10-05T22:34:05.151Z,12.30
2022-10-05T22:36:35.232Z,12.30
2022-10-05T22:39:02.791Z,12.30
2022-10-05T22:41:30.203Z,12.30
2022-10-05T22:43:57.389Z,12.20
2022-10-05T22:46:24.977Z,12.20
2022-10-05T22:48:52.350Z,12.20
2022-10-05T22:51:19.663Z,12.20
2022-10-05T22:53:46.855Z,12.20
2022-10-05T22:56:15.333Z,12.20
2022-10-05T22:58:43.209Z,12.20
2022-10-05T23:01:13.863Z,12.10
2022-10-05T23:03:41.698Z,12.10
2022-10-05T23:06:12.053Z,12.10
2022-10-05T23:08:40.142Z,12.10
2022-10-05T23:11:10.901Z,12.00
2022-10-05T23:13:38.360Z,12.00
2022-10-05T23:16:08.240Z,12.00
2022-10-05T23:18:35.863Z,12.00
2022-10-05T23:21:03.435Z,12.00
2022-10-05T23:23:30.662Z,11.90
2022-10-05T23:26:01.839Z,11.90
2022-10-05T23:28:29.675Z,11.90
2022-10-05T23:31:06.126Z,11.90
2022-10-05T23:33:34.888Z,11.90
2022-10-05T23:36:08.083Z,11.90
2022-10-05T23:38:36.224Z,11.80
2022-10-05T23:41:04.752Z,11.80
2022-10-05T23:43:35.175Z,11.80
2022-10-05T23:46:04.402Z,11.80
2022-10-05T23:48:32.229Z,11.80
2022-10-05T23:51:00.419Z,11.80
2022-10-05T23:53:27.836Z,11.80
2022-10-05T23:55:55.457Z,11.70
2022-10-05T23:58:23.993Z,11.70
